Time;durP1;ratioP1;P1;durP2;ratioP2;P2;SDS_P1;SDS_P2;PMS_P1;PMS_P2;Temp;Humidity;BMP_temperature;BMP_pressure;BME280_temperature;BME280_humidity;BME280_pressure;Samples;Min_cycle;Max_cycle;Signal;HPM_P1;HPM_P2
2023/08/12 00:00:29;;;;;;;10.95;6.38;;;;;;;;;;4998561;28;20091;-87
2023/08/12 00:02:55;;;;;;;8.10;5.88;;;;;;;;;;5015694;28;20064;-91
2023/08/12 00:05:22;;;;;;;12.25;6.53;;;19.20;15.60;;;;;;4998740;28;20047;-83
2023/08/12 00:07:48;;;;;;;12.23;6.72;;;;;;;;;;4998380;28;20089;-84
2023/08/12 00:10:15;;;;;;;8.35;5.10;;;19.10;20.20;;;;;;4982681;28;20041;-84
2023/08/12 00:12:41;;;;;;;14.95;5.65;;;;;;;;;;4998496;28;20076;-84
2023/08/12 00:15:08;;;;;;;10.23;6.53;;;19.20;30.40;;;;;;4998459;28;20092;-84
2023/08/12 00:17:37;;;;;;;9.80;5.53;;;19.10;18.10;;;;;;4997845;28;20057;-84
2023/08/12 00:20:10;;;;;;;8.93;5.43;;;19.20;35.00;;;;;;4997821;28;20821;-83
2023/08/12 00:22:37;;;;;;;8.32;5.38;;;;;;;;;;4982454;28;20052;-84
2023/08/12 00:25:03;;;;;;;7.60;4.95;;;19.10;35.60;;;;;;4997718;28;20056;-84
2023/08/12 00:27:29;;;;;;;12.18;6.28;;;;;;;;;;5014396;28;20479;-84
2023/08/12 00:29:56;;;;;;;6.68;4.72;;;;;;;;;;4981532;28;20156;-84
2023/08/12 00:32:21;;;;;;;12.57;5.50;;;19.10;36.60;;;;;;4981928;28;20049;-84
2023/08/12 00:34:47;;;;;;;12.15;5.85;;;;;;;;;;4981491;28;20033;-84
2023/08/12 00:37:13;;;;;;;7.93;5.30;;;;;;;;;;4998025;28;20063;-84
2023/08/12 00:39:39;;;;;;;8.73;5.18;;;;;;;;;;4982113;28;20414;-85
2023/08/12 00:42:05;;;;;;;6.40;4.97;;;;;;;;;;4998168;28;20037;-84
2023/08/12 00:44:31;;;;;;;10.70;5.32;;;;;;;;;;5014135;28;20049;-84
2023/08/12 00:46:58;;;;;;;6.38;4.45;;;;;;;;;;4981890;28;20045;-85
2023/08/12 00:49:24;;;;;;;6.13;4.53;;;;;;;;;;5014127;28;20136;-85
2023/08/12 00:51:52;;;;;;;9.57;4.88;;;19.00;25.30;;;;;;5014433;28;20099;-84
2023/08/12 00:54:21;;;;;;;10.43;5.35;;;18.90;25.40;;;;;;4981970;28;20096;-84
2023/08/12 00:56:49;;;;;;;12.55;5.45;;;19.00;25.10;;;;;;4997987;28;20044;-85
2023/08/12 00:59:15;;;;;;;7.60;4.63;;;;;;;;;;4997714;28;20054;-84
2023/08/12 01:01:41;;;;;;;6.50;4.70;;;;;;;;;;5014260;28;20045;-83
2023/08/12 01:04:07;;;;;;;8.32;4.30;;;;;;;;;;4984145;28;20095;-83
2023/08/12 01:06:34;;;;;;;6.25;4.65;;;;;;;;;;5018203;28;20399;-83
2023/08/12 01:09:01;;;;;;;7.28;4.40;;;18.90;22.40;;;;;;5017901;28;20056;-83
2023/08/12 01:11:40;;;;;;;7.80;4.50;;;19.00;41.00;;;;;;5001522;28;20095;-83
2023/08/12 01:14:27;;;;;;;7.10;4.88;;;19.00;42.20;;;;;;5001548;28;20084;-84
2023/08/12 01:16:58;;;;;;;8.23;4.20;;;19.10;26.90;;;;;;5001427;28;20045;-84
2023/08/12 01:19:37;;;;;;;8.20;4.90;;;19.10;42.40;;;;;;5017257;28;20048;-84
2023/08/12 01:22:05;;;;;;;6.18;4.65;;;18.90;26.60;;;;;;5000801;28;20053;-83
2023/08/12 01:24:36;;;;;;;11.27;5.78;;;18.80;26.90;;;;;;5001431;28;20077;-83
2023/08/12 01:27:02;;;;;;;13.63;5.43;;;;;;;;;;5000948;28;20402;-84
2023/08/12 01:29:29;;;;;;;8.93;4.75;;;;;;;;;;4984468;28;20498;-84
2023/08/12 01:32:03;;;;;;;9.50;4.85;;;18.90;27.80;;;;;;5000947;28;20144;-84
2023/08/12 01:34:29;;;;;;;11.55;4.65;;;;;;;;;;5016758;28;20195;-84
2023/08/12 01:36:58;;;;;;;8.80;4.43;;;18.80;28.00;;;;;;5000554;28;20045;-84
2023/08/12 01:39:24;;;;;;;9.88;4.97;;;;;;;;;;5000641;28;20046;-84
2023/08/12 01:41:51;;;;;;;7.82;4.30;;;18.80;27.40;;;;;;5000773;28;20124;-83
2023/08/12 01:44:18;;;;;;;6.32;4.53;;;;;;;;;;5016808;28;20055;-83
2023/08/12 01:46:46;;;;;;;8.52;4.85;;;18.80;22.10;;;;;;5016845;28;20068;-84
2023/08/12 01:49:12;;;;;;;9.73;5.07;;;;;;;;;;4984369;28;20132;-84
2023/08/12 01:51:38;;;;;;;6.93;5.00;;;;;;;;;;5000379;28;20518;-84
2023/08/12 01:54:04;;;;;;;9.98;4.97;;;18.80;45.10;;;;;;5016580;28;20049;-85
2023/08/12 01:56:30;;;;;;;8.43;4.70;;;;;;;;;;4984206;28;20049;-85
2023/08/12 01:58:56;;;;;;;7.45;5.13;;;;;;;;;;4984362;28;20510;-86
2023/08/12 02:01:22;;;;;;;9.15;5.10;;;;;;;;;;5017632;28;20136;-87
2023/08/12 02:03:48;;;;;;;7.30;4.70;;;;;;;;;;4985190;28;20045;-88
2023/08/12 02:06:15;;;;;;;7.10;5.10;;;;;;;;;;5016981;28;20099;-85
2023/08/12 02:08:41;;;;;;;7.70;4.68;;;;;;;;;;5017081;28;20473;-86
2023/08/12 02:11:07;;;;;;;6.55;4.65;;;;;;;;;;5000768;28;20045;-89
2023/08/12 02:13:33;;;;;;;9.60;5.22;;;;;;;;;;4984418;28;20051;-90
2023/08/12 02:15:59;;;;;;;10.05;5.72;;;;;;;;;;5000533;28;20128;-92
2023/08/12 02:18:25;;;;;;;5.70;4.65;;;;;;;;;;5016759;28;20052;-87
2023/08/12 02:20:51;;;;;;;11.48;5.13;;;;;;;;;;5016947;28;20037;-83
2023/08/12 02:23:17;;;;;;;7.93;5.05;;;;;;;;;;5016791;28;20107;-87
2023/08/12 02:25:43;;;;;;;8.73;5.57;;;;;;;;;;5016566;28;20045;-85
2023/08/12 02:28:09;;;;;;;5.85;4.45;;;;;;;;;;5000270;28;20495;-85
2023/08/12 02:30:35;;;;;;;6.88;5.13;;;;;;;;;;5000085;28;20544;-87
2023/08/12 02:33:01;;;;;;;7.25;4.85;;;;;;;;;;5016390;28;20042;-93
2023/08/12 02:35:27;;;;;;;8.65;5.47;;;;;;;;;;4983664;28;20405;-84
2023/08/12 02:37:53;;;;;;;7.70;4.95;;;;;;;;;;5016639;28;20128;-87
2023/08/12 02:40:19;;;;;;;7.95;6.03;;;;;;;;;;4983974;28;20045;-86
2023/08/12 02:42:45;;;;;;;8.93;5.80;;;;;;;;;;5000051;28;20047;-84
2023/08/12 02:45:11;;;;;;;8.98;5.53;;;;;;;;;;5000086;28;20042;-85
2023/08/12 02:47:37;;;;;;;12.70;5.90;;;;;;;;;;4999893;28;20038;-86
2023/08/12 02:50:04;;;;;;;10.50;6.30;;;18.50;55.60;;;;;;4999955;28;20546;-84
2023/08/12 02:52:30;;;;;;;9.93;5.30;;;;;;;;;;5016150;28;20579;-84
2023/08/12 02:54:56;;;;;;;12.88;6.53;;;;;;;;;;4999918;28;20053;-89
2023/08/12 02:57:22;;;;;;;6.95;5.30;;;;;;;;;;4983571;28;20099;-85
2023/08/12 02:59:48;;;;;;;11.10;5.80;;;;;;;;;;4983615;28;20402;-88
2023/08/12 03:02:16;;;;;;;6.47;4.85;;;;;;;;;;5015987;28;20549;-85
2023/08/12 03:04:42;;;;;;;7.03;5.82;;;;;;;;;;4999681;28;20422;-84
2023/08/12 03:07:08;;;;;;;8.65;5.22;;;;;;;;;;4999686;28;20037;-91
2023/08/12 03:09:34;;;;;;;8.07;5.55;;;;;;;;;;4984520;28;20075;-87
2023/08/12 03:12:03;;;;;;;7.00;5.28;;;;;;;;;;5000020;28;20045;-88
2023/08/12 03:14:30;;;;;;;9.57;6.00;;;;;;;;;;4984176;28;20042;-86
2023/08/12 03:16:56;;;;;;;15.63;6.32;;;;;;;;;;5000760;28;20052;-87
2023/08/12 03:19:22;;;;;;;13.50;6.13;;;;;;;;;;5016078;28;20088;-88
2023/08/12 03:21:48;;;;;;;7.03;6.00;;;;;;;;;;5000312;28;20037;-89
2023/08/12 03:24:14;;;;;;;7.82;6.15;;;;;;;;;;4999667;28;20145;-85
2023/08/12 03:26:40;;;;;;;12.55;7.13;;;;;;;;;;5014779;28;20045;-90
2023/08/12 03:29:06;;;;;;;10.32;6.38;;;;;;;;;;4984182;28;20050;-86
2023/08/12 03:31:32;;;;;;;11.52;6.50;;;18.40;55.90;;;;;;4983262;28;20092;-84
2023/08/12 03:33:58;;;;;;;8.73;6.20;;;;;;;;;;4982673;28;20139;-87
2023/08/12 03:36:24;;;;;;;10.27;6.90;;;;;;;;;;4982914;28;20045;-90
2023/08/12 03:38:50;;;;;;;14.10;7.32;;;;;;;;;;4998839;28;20482;-87
2023/08/12 03:41:16;;;;;;;9.45;6.38;;;;;;;;;;5015100;28;20092;-90
2023/08/12 03:43:42;;;;;;;13.00;7.60;;;;;;;;;;4999028;28;20490;-91
2023/08/12 03:46:08;;;;;;;11.60;6.75;;;;;;;;;;4999176;28;20048;-92
2023/08/12 03:48:34;;;;;;;13.10;7.43;;;;;;;;;;5015303;28;20042;-90
2023/08/12 03:51:00;;;;;;;13.80;7.22;;;;;;;;;;4982785;28;20234;-92
2023/08/12 03:53:26;;;;;;;10.10;7.18;;;18.50;65.50;;;;;;4998820;28;20041;-90
2023/08/12 03:55:52;;;;;;;12.63;6.95;;;;;;;;;;4998760;28;20045;-92
2023/08/12 03:58:18;;;;;;;11.65;6.97;;;;;;;;;;4998795;28;20053;-89
2023/08/12 04:00:44;;;;;;;16.30;9.32;;;;;;;;;;4982926;28;20041;-87
2023/08/12 04:03:10;;;;;;;11.63;7.63;;;;;;;;;;5015308;28;20080;-92
2023/08/12 04:05:36;;;;;;;12.18;7.45;;;;;;;;;;4999156;28;20566;-93
2023/08/12 04:08:02;;;;;;;10.02;7.10;;;;;;;;;;5014951;28;20406;-90
2023/08/12 04:10:28;;;;;;;13.20;7.88;;;;;;;;;;4998959;28;20045;-92
2023/08/12 04:12:54;;;;;;;14.60;9.55;;;;;;;;;;4998909;28;20045;-90
2023/08/12 04:15:20;;;;;;;11.77;7.70;;;;;;;;;;4999033;28;20052;-90
2023/08/12 04:17:46;;;;;;;13.27;8.23;;;;;;;;;;5015208;28;20091;-95
2023/08/12 04:20:12;;;;;;;13.32;7.93;;;;;;;;;;4982640;28;20044;-94
2023/08/12 04:22:38;;;;;;;12.85;8.40;;;;;;;;;;4998469;28;20134;-91
2023/08/12 04:25:05;;;;;;;12.00;7.28;;;18.30;72.20;;;;;;4982482;28;20045;-94
2023/08/12 04:27:31;;;;;;;12.45;7.88;;;;;;;;;;4966854;28;20406;-93
2023/08/12 04:29:57;;;;;;;10.55;7.70;;;;;;;;;;4998964;28;20049;-94
2023/08/12 04:32:23;;;;;;;14.02;8.57;;;;;;;;;;4998874;28;20092;-92
2023/08/12 04:34:49;;;;;;;11.73;7.85;;;;;;;;;;5014624;28;20442;-91
2023/08/12 04:37:15;;;;;;;14.18;8.82;;;;;;;;;;5016793;28;20049;-91
2023/08/12 04:39:42;;;;;;;12.00;7.95;;;;;;;;;;5003068;28;20053;-93
2023/08/12 04:42:08;;;;;;;10.52;8.07;;;;;;;;;;4987025;28;20445;-90
2023/08/12 04:44:34;;;;;;;13.32;8.98;;;;;;;;;;4986481;28;20046;-93
2023/08/12 04:47:00;;;;;;;12.60;8.60;;;;;;;;;;5002446;28;20079;-94
2023/08/12 04:49:27;;;;;;;14.02;8.60;;;;;;;;;;5003233;28;20137;-91
2023/08/12 04:51:53;;;;;;;11.35;7.95;;;;;;;;;;5002730;28;20046;-90
2023/08/12 04:54:19;;;;;;;14.15;8.43;;;;;;;;;;5002458;28;20049;-94
2023/08/12 04:56:45;;;;;;;11.85;7.80;;;;;;;;;;4986792;28;20045;-92
2023/08/12 04:59:11;;;;;;;12.23;8.00;;;;;;;;;;5002226;28;20092;-90
2023/08/12 05:01:37;;;;;;;12.68;8.55;;;;;;;;;;4986080;28;20498;-90
2023/08/12 05:04:03;;;;;;;9.60;7.82;;;18.50;79.30;;;;;;5002227;28;20046;-92
2023/08/12 05:06:29;;;;;;;12.30;8.30;;;;;;;;;;4985669;28;20049;-90
2023/08/12 05:08:55;;;;;;;10.20;7.78;;;;;;;;;;5002184;28;20049;-87
2023/08/12 05:11:22;;;;;;;13.10;7.85;;;;;;;;;;5002194;28;20038;-91
2023/08/12 05:13:48;;;;;;;20.73;9.43;;;;;;;;;;5001978;28;20057;-84
2023/08/12 05:16:14;;;;;;;9.88;7.85;;;;;;;;;;5001583;28;20413;-85
2023/08/12 05:18:40;;;;;;;9.40;7.10;;;;;;;;;;5017334;28;20513;-85
2023/08/12 05:21:06;;;;;;;11.52;7.20;;;;;;;;;;5001057;28;20501;-84
2023/08/12 05:23:32;;;;;;;12.07;7.45;;;;;;;;;;5000975;28;20119;-84
2023/08/12 05:25:58;;;;;;;14.15;9.90;;;;;;;;;;4984956;28;20053;-85
2023/08/12 05:28:24;;;;;;;12.82;7.97;;;;;;;;;;5000865;28;20045;-84
2023/08/12 05:30:50;;;;;;;11.60;8.93;;;;;;;;;;5001254;28;20068;-84
2023/08/12 05:33:16;;;;;;;16.17;8.35;;;;;;;;;;5000597;28;20041;-84
2023/08/12 05:35:42;;;;;;;13.52;8.18;;;;;;;;;;5017284;28;20129;-84
2023/08/12 05:38:08;;;;;;;13.18;8.40;;;;;;;;;;4984438;28;20045;-85
2023/08/12 05:40:34;;;;;;;12.85;7.95;;;;;;;;;;5000692;28;20096;-85
2023/08/12 05:43:00;;;;;;;10.98;7.47;;;;;;;;;;5000725;28;20053;-85
2023/08/12 05:45:26;;;;;;;12.40;8.10;;;;;;;;;;5016973;28;20037;-84
2023/08/12 05:47:52;;;;;;;9.90;7.68;;;;;;;;;;5017028;28;20132;-85
2023/08/12 05:50:18;;;;;;;14.00;7.20;;;;;;;;;;4983910;28;20041;-85
2023/08/12 05:52:44;;;;;;;16.67;8.30;;;;;;;;;;5016889;28;20457;-84
2023/08/12 05:55:10;;;;;;;13.05;7.90;;;;;;;;;;5017601;28;20107;-90
2023/08/12 05:57:37;;;;;;;12.15;7.80;;;;;;;;;;5002081;28;20132;-88
2023/08/12 06:00:03;;;;;;;11.40;8.15;;;19.50;83.80;;;;;;5001991;28;20100;-90
2023/08/12 06:02:29;;;;;;;12.85;7.65;;;;;;;;;;5001784;28;20049;-86
2023/08/12 06:04:55;;;;;;;9.93;7.65;;;;;;;;;;5017796;28;20049;-89
2023/08/12 06:07:23;;;;;;;22.25;9.65;;;;;;;;;;5017800;28;20117;-90
2023/08/12 06:09:49;;;;;;;10.48;8.48;;;;;;;;;;5017476;28;20056;-85
2023/08/12 06:12:15;;;;;;;15.73;8.68;;;;;;;;;;5017059;28;20085;-89
2023/08/12 06:14:41;;;;;;;13.10;8.88;;;;;;;;;;5001325;28;20045;-87
2023/08/12 06:17:08;;;;;;;14.00;9.15;;;;;;;;;;4984341;28;20045;-87
2023/08/12 06:19:34;;;;;;;13.05;7.57;;;;;;;;;;5000514;28;20049;-84
2023/08/12 06:22:00;;;;;;;13.82;7.85;;;;;;;;;;5000594;28;20045;-85
2023/08/12 06:24:26;;;;;;;18.85;8.75;;;;;;;;;;5000301;28;20049;-85
2023/08/12 06:26:53;;;;;;;14.45;8.95;;;;;;;;;;5016527;28;20042;-84
2023/08/12 06:29:19;;;;;;;16.75;8.23;;;;;;;;;;5000131;28;20452;-86
2023/08/12 06:31:45;;;;;;;16.27;8.07;;;;;;;;;;4983992;28;20057;-87
2023/08/12 06:34:11;;;;;;;12.98;8.20;;;20.00;80.40;;;;;;4983699;28;20505;-85
2023/08/12 06:36:37;;;;;;;15.32;8.27;;;;;;;;;;5016368;28;20406;-84
2023/08/12 06:39:03;;;;;;;18.33;8.60;;;;;;;;;;4999491;28;20103;-84
2023/08/12 06:41:29;;;;;;;20.95;8.00;;;;;;;;;;4983498;28;20047;-85
2023/08/12 06:43:55;;;;;;;17.75;8.85;;;;;;;;;;5013500;28;20046;-85
2023/08/12 06:46:21;;;;;;;11.25;8.88;;;;;;;;;;4995694;28;20042;-85
2023/08/12 06:48:47;;;;;;;15.00;9.00;;;;;;;;;;4979541;28;20042;-85
2023/08/12 06:51:13;;;;;;;15.32;9.20;;;;;;;;;;4995452;28;20054;-85
2023/08/12 06:53:40;;;;;;;18.63;9.80;;;;;;;;;;4996070;28;20050;-84
2023/08/12 06:56:06;;;;;;;15.88;9.80;;;;;;;;;;4962724;28;20042;-85
2023/08/12 06:58:32;;;;;;;13.90;8.77;;;;;;;;;;4963139;28;20100;-85
2023/08/12 07:01:01;;;;;;;11.25;7.95;;;;;;;;;;4978772;28;20133;-85
2023/08/12 07:03:27;;;;;;;15.15;9.00;;;;;;;;;;4978223;28;20052;-85
2023/08/12 07:05:54;;;;;;;15.93;9.80;;;;;;;;;;4995626;28;20088;-85
2023/08/12 07:08:20;;;;;;;13.63;8.52;;;;;;;;;;4995506;28;20570;-85
2023/08/12 07:10:46;;;;;;;19.30;9.98;;;;;;;;;;4979709;28;20045;-85
2023/08/12 07:13:12;;;;;;;20.60;9.90;;;;;;;;;;5012915;28;20121;-85
2023/08/12 07:15:38;;;;;;;22.25;10.52;;;;;;;;;;4979205;28;20100;-85
2023/08/12 07:18:04;;;;;;;14.60;11.43;;;20.10;80.70;;;;;;4963205;28;20045;-85
2023/08/12 07:20:30;;;;;;;18.58;10.18;;;;;;;;;;4979544;28;20042;-85
2023/08/12 07:22:56;;;;;;;15.70;10.25;;;;;;;;;;4979325;28;20141;-85
2023/08/12 07:25:22;;;;;;;15.40;10.10;;;;;;;;;;4995341;28;20100;-85
2023/08/12 07:27:49;;;;;;;14.85;10.48;;;;;;;;;;4979768;28;20388;-85
2023/08/12 07:30:15;;;;;;;21.55;11.48;;;;;;;;;;4995233;28;20046;-85
2023/08/12 07:32:41;;;;;;;15.85;10.98;;;;;;;;;;4965434;28;20052;-85
2023/08/12 07:35:07;;;;;;;15.30;11.55;;;20.40;80.30;;;;;;4962847;28;20514;-85
2023/08/12 07:37:33;;;;;;;20.08;11.20;;;;;;;;;;4946965;28;20077;-85
2023/08/12 07:39:59;;;;;;;18.73;11.48;;;;;;;;;;4995030;28;20418;-85
2023/08/12 07:42:25;;;;;;;16.60;11.30;;;;;;;;;;4978905;28;20052;-84
2023/08/12 07:44:51;;;;;;;14.57;10.93;;;;;;;;;;4963143;28;20042;-85
2023/08/12 07:47:17;;;;;;;19.52;11.75;;;;;;;;;;4978836;28;20406;-85
2023/08/12 07:49:43;;;;;;;21.35;12.40;;;20.40;80.90;;;;;;4962897;28;20124;-85
2023/08/12 07:52:09;;;;;;;22.20;11.98;;;20.40;81.10;;;;;;4994838;28;20474;-85
2023/08/12 07:54:35;;;;;;;18.35;12.18;;;;;;;;;;4978496;28;20046;-85
2023/08/12 07:57:02;;;;;;;20.15;12.57;;;;;;;;;;4979049;28;20049;-85
2023/08/12 07:59:31;;;;;;;17.65;11.98;;;;;;;;;;4995131;28;20046;-85
2023/08/12 08:01:57;;;;;;;17.20;11.43;;;;;;;;;;4962594;28;20049;-84
2023/08/12 08:04:23;;;;;;;18.75;12.00;;;;;;;;;;4962515;28;20491;-85
2023/08/12 08:06:49;;;;;;;17.70;12.27;;;;;;;;;;4978454;28;20128;-84
2023/08/12 08:09:15;;;;;;;18.75;12.95;;;;;;;;;;4978410;28;20046;-85
2023/08/12 08:11:41;;;;;;;16.50;12.50;;;20.40;79.60;;;;;;4978088;28;20044;-85
2023/08/12 08:14:07;;;;;;;21.30;12.50;;;20.40;79.40;;;;;;4978814;28;20136;-86
2023/08/12 08:16:33;;;;;;;16.00;11.48;;;;;;;;;;4962808;28;20040;-88
2023/08/12 08:18:59;;;;;;;20.25;12.70;;;;;;;;;;4978843;28;20042;-89
2023/08/12 08:21:25;;;;;;;19.75;12.00;;;20.60;58.70;;;;;;4962673;28;20046;-84
2023/08/12 08:23:51;;;;;;;21.92;12.10;;;;;;;;;;4978222;28;20499;-86
2023/08/12 08:26:18;;;;;;;17.45;11.50;;;;;;;;;;4978664;28;20084;-85
2023/08/12 08:28:44;;;;;;;19.92;11.60;;;;;;;;;;4978581;28;20475;-86
2023/08/12 08:31:10;;;;;;;39.00;19.15;;;;;;;;;;5002907;28;20065;-86
2023/08/12 08:33:36;;;;;;;20.75;12.77;;;;;;;;;;4998119;28;20053;-88
2023/08/12 08:36:02;;;;;;;20.02;11.50;;;20.40;67.60;;;;;;4997617;28;20052;-85
2023/08/12 08:38:28;;;;;;;21.50;11.55;;;;;;;;;;4965771;28;20049;-85
2023/08/12 08:40:55;;;;;;;18.88;12.40;;;;;;;;;;4998256;28;20486;-86
2023/08/12 08:43:24;;;;;;;18.60;11.52;;;20.40;55.30;;;;;;5014248;28;20053;-87
2023/08/12 08:45:52;;;;;;;18.38;12.63;;;20.50;57.20;;;;;;4997848;28;20044;-86
2023/08/12 08:48:19;;;;;;;21.63;12.18;;;20.50;56.80;;;;;;4981620;28;20045;-86
2023/08/12 08:50:46;;;;;;;24.05;13.98;;;;;;;;;;4997700;28;20045;-83
2023/08/12 08:53:12;;;;;;;23.20;13.07;;;20.50;79.10;;;;;;4997234;28;20072;-83
2023/08/12 08:55:40;;;;;;;20.98;12.93;;;20.30;58.90;;;;;;4981613;28;20127;-86
2023/08/12 08:58:06;;;;;;;23.33;13.55;;;;;;;;;;4997223;28;20088;-84
2023/08/12 09:00:33;;;;;;;19.70;12.40;;;;;;;;;;5013765;28;20137;-86
2023/08/12 09:02:59;;;;;;;19.50;13.75;;;;;;;;;;5013649;28;20052;-84
2023/08/12 09:05:27;;;;;;;24.10;14.90;;;20.40;62.60;;;;;;4997695;28;20457;-86
2023/08/12 09:07:54;;;;;;;20.58;14.45;;;20.60;62.70;;;;;;4997696;28;20525;-85
2023/08/12 09:10:23;;;;;;;25.83;15.82;;;20.60;84.70;;;;;;5013928;28;20075;-83
2023/08/12 09:12:52;;;;;;;24.00;14.35;;;;;;;;;;4997220;28;20052;-85
2023/08/12 09:15:18;;;;;;;24.65;14.82;;;;;;;;;;4981668;28;20465;-87
2023/08/12 09:17:45;;;;;;;27.58;15.13;;;;;;;;;;4997547;28;20490;-87
2023/08/12 09:20:11;;;;;;;23.98;15.85;;;20.80;86.90;;;;;;4997316;28;20051;-87
2023/08/12 09:22:41;;;;;;;23.02;15.20;;;20.50;65.30;;;;;;4981163;28;20466;-86
2023/08/12 09:25:08;;;;;;;23.90;15.65;;;20.60;61.20;;;;;;5034598;28;20041;-85
2023/08/12 09:27:37;;;;;;;22.40;14.82;;;20.60;66.40;;;;;;5035549;28;20499;-88
2023/08/12 09:30:04;;;;;;;23.23;14.98;;;20.60;66.20;;;;;;5017847;28;20049;-89
2023/08/12 09:32:31;;;;;;;20.50;14.68;;;;;;;;;;5000890;28;20061;-88
2023/08/12 09:34:57;;;;;;;19.77;14.88;;;;;;;;;;4985327;28;20142;-87
2023/08/12 09:37:24;;;;;;;19.27;14.60;;;20.70;66.70;;;;;;5001864;28;20505;-91
2023/08/12 09:39:51;;;;;;;23.67;16.92;;;20.50;63.60;;;;;;4969318;28;20052;-92
2023/08/12 09:42:17;;;;;;;26.60;15.50;;;;;;;;;;4986625;28;20080;-91
2023/08/12 09:44:44;;;;;;;20.38;13.95;;;20.80;89.00;;;;;;5001677;28;20593;-89
2023/08/12 09:47:10;;;;;;;31.50;16.55;;;;;;;;;;4984965;28;20045;-91
2023/08/12 09:49:38;;;;;;;19.00;15.55;;;20.70;88.70;;;;;;5018176;28;20136;-87
2023/08/12 09:52:05;;;;;;;22.58;15.98;;;18.40;66.60;;;;;;5018326;28;20497;-88
2023/08/12 09:54:37;;;;;;;21.15;15.23;;;20.70;90.00;;;;;;5018117;28;20046;-90
2023/08/12 09:57:04;;;;;;;26.05;15.90;;;20.80;90.30;;;;;;4985667;28;20049;-92
2023/08/12 09:59:34;;;;;;;20.15;16.20;;;20.70;69.70;;;;;;4969224;28;20045;-90
2023/08/12 10:02:04;;;;;;;22.75;15.90;;;;;;;;;;5017400;28;20494;-88
2023/08/12 10:04:44;;;;;;;22.42;17.13;;;20.70;70.30;;;;;;5017434;28;20107;-92
2023/08/12 10:07:12;;;;;;;23.02;16.88;;;;;;;;;;5016737;28;20095;-90
2023/08/12 10:09:39;;;;;;;22.73;16.52;;;20.60;68.60;;;;;;5000661;28;20053;-89
2023/08/12 10:12:09;;;;;;;22.85;17.25;;;20.70;91.00;;;;;;4984011;28;20144;-86
2023/08/12 10:14:35;;;;;;;23.27;17.30;;;20.80;67.50;;;;;;5000791;28;20072;-84
2023/08/12 10:17:01;;;;;;;24.92;15.82;;;;;;;;;;5016781;28;20041;-86
2023/08/12 10:19:37;;;;;;;17.98;15.05;;;20.70;91.10;;;;;;5001358;28;20466;-85
2023/08/12 10:22:10;;;;;;;23.45;16.27;;;20.80;71.80;;;;;;4985914;28;20069;-85
2023/08/12 10:24:37;;;;;;;22.23;15.10;;;20.60;91.00;;;;;;5033344;28;20057;-81
2023/08/12 10:27:04;;;;;;;17.05;14.23;;;20.70;91.50;;;;;;5000301;28;20041;-82
2023/08/12 10:29:30;;;;;;;23.77;14.43;;;;;;;;;;5016938;28;20155;-82
2023/08/12 10:31:57;;;;;;;19.45;15.18;;;;;;;;;;5000559;28;20041;-86
2023/08/12 10:34:24;;;;;;;21.83;14.75;;;20.60;69.30;;;;;;5016269;28;20053;-82
2023/08/12 10:37:00;;;;;;;16.92;12.65;;;20.90;60.30;;;;;;5017494;28;20060;-84
2023/08/12 10:39:32;;;;;;;17.15;15.05;;;20.60;73.40;;;;;;5034750;28;20473;-81
2023/08/12 10:41:59;;;;;;;15.30;11.65;;;;;;;;;;4999993;28;20053;-83
2023/08/12 10:44:51;;;;;;;19.23;14.20;;;20.90;61.30;;;;;;4985472;28;20041;-83
2023/08/12 10:47:17;;;;;;;16.67;13.00;;;;;;;;;;5000072;28;20116;-83
2023/08/12 10:49:47;;;;;;;15.57;11.25;;;20.80;74.20;;;;;;5016429;28;20049;-84
2023/08/12 10:52:34;;;;;;;11.25;10.05;;;20.70;91.70;;;;;;5015891;28;20077;-84
2023/08/12 10:55:19;;;;;;;8.33;7.20;;;20.90;92.50;;;;;;4999281;28;20045;-84
2023/08/12 10:57:45;;;;;;;7.68;6.88;;;20.50;66.60;;;;;;4999092;28;20808;-87
2023/08/12 11:00:14;;;;;;;9.20;6.10;;;20.80;92.10;;;;;;4983354;28;20469;-87
2023/08/12 11:02:45;;;;;;;8.15;7.28;;;20.90;73.30;;;;;;4999630;28;20049;-83
2023/08/12 11:05:12;;;;;;;9.27;6.65;;;20.90;66.90;;;;;;4999187;28;20146;-84
2023/08/12 11:07:48;;;;;;;8.15;6.82;;;20.80;73.60;;;;;;4999415;28;20041;-83
2023/08/12 11:10:25;;;;;;;13.05;5.75;;;20.80;61.00;;;;;;4999207;28;20089;-84
2023/08/12 11:12:55;;;;;;;7.38;5.78;;;20.70;92.10;;;;;;4999229;28;20049;-83
2023/08/12 11:15:38;;;;;;;5.85;4.07;;;21.00;91.90;;;;;;5015352;28;20041;-84
2023/08/12 11:18:04;;;;;;;6.10;5.10;;;;;;;;;;5015381;28;20042;-84
2023/08/12 11:20:31;;;;;;;5.65;4.32;;;20.80;91.20;;;;;;5000223;28;20175;-91
2023/08/12 11:22:58;;;;;;;5.10;3.88;;;20.80;62.80;;;;;;5016990;28;20052;-86
2023/08/12 11:25:24;;;;;;;9.93;3.03;;;;;;;;;;5000444;28;20046;-82
2023/08/12 11:27:50;;;;;;;5.28;3.05;;;;;;;;;;5000840;28;20049;-90
2023/08/12 11:30:17;;;;;;;3.42;2.95;;;;;;;;;;5000641;28;20048;-85
2023/08/12 11:32:45;;;;;;;5.63;3.35;;;20.10;39.90;;;;;;5000990;28;20053;-83
2023/08/12 11:35:12;;;;;;;3.80;3.00;;;20.00;40.00;;;;;;5001814;28;20568;-85
2023/08/12 11:37:40;;;;;;;4.47;2.95;;;19.60;39.10;;;;;;5000608;28;20053;-85
2023/08/12 11:40:09;;;;;;;6.80;3.95;;;19.60;41.70;;;;;;5017171;28;20128;-91
2023/08/12 11:42:36;;;;;;;5.07;3.33;;;19.70;47.00;;;;;;5012343;28;20048;-93
2023/08/12 11:45:03;;;;;;;6.28;2.80;;;19.60;50.70;;;;;;4980160;28;20046;-87
2023/08/12 11:47:29;;;;;;;4.43;3.17;;;;;;;;;;5011848;28;20053;-87
2023/08/12 11:49:56;;;;;;;7.47;2.72;;;;;;;;;;5012836;28;20100;-86
2023/08/12 11:52:22;;;;;;;6.25;2.50;;;;;;;;;;4979446;28;20052;-84
2023/08/12 11:54:50;;;;;;;4.72;2.28;;;19.10;44.20;;;;;;5011441;28;20121;-84
2023/08/12 11:57:16;;;;;;;5.07;2.15;;;;;;;;;;4994979;28;20111;-83
2023/08/12 11:59:43;;;;;;;8.68;2.22;;;;;;;;;;4994792;28;20057;-83
2023/08/12 12:02:10;;;;;;;5.22;2.88;;;19.00;44.90;;;;;;4994760;28;20041;-83
2023/08/12 12:04:37;;;;;;;5.35;2.38;;;;;;;;;;5011100;28;20097;-83
2023/08/12 12:07:06;;;;;;;6.70;2.83;;;;;;;;;;4994995;28;20065;-82
2023/08/12 12:09:32;;;;;;;7.25;2.92;;;19.00;50.30;;;;;;4979251;28;20042;-88
2023/08/12 12:11:58;;;;;;;4.13;2.42;;;;;;;;;;4978944;28;20084;-88
2023/08/12 12:14:25;;;;;;;5.97;2.55;;;;;;;;;;5011371;28;20038;-85
2023/08/12 12:16:51;;;;;;;6.20;2.55;;;;;;;;;;4995046;28;20042;-83
2023/08/12 12:19:20;;;;;;;5.60;2.92;;;19.10;67.50;;;;;;4994536;28;20518;-83
2023/08/12 12:21:51;;;;;;;6.45;2.30;;;19.10;60.80;;;;;;5011383;28;20038;-88
2023/08/12 12:24:18;;;;;;;5.15;2.30;;;19.10;39.50;;;;;;4994736;28;20084;-85
2023/08/12 12:26:47;;;;;;;4.88;2.28;;;18.90;47.80;;;;;;4994833;28;20053;-86
2023/08/12 12:29:13;;;;;;;4.63;1.80;;;;;;;;;;4978481;28;20049;-86
2023/08/12 12:31:41;;;;;;;4.47;1.90;;;19.10;30.50;;;;;;4978506;28;20462;-87
2023/08/12 12:34:09;;;;;;;4.63;1.83;;;;;;;;;;4995408;28;20048;-87
2023/08/12 12:36:36;;;;;;;5.82;2.33;;;19.20;21.00;;;;;;4995058;28;20493;-85
2023/08/12 12:39:03;;;;;;;5.85;1.98;;;19.20;23.90;;;;;;4994800;28;20045;-84
2023/08/12 12:41:29;;;;;;;7.65;3.15;;;;;;;;;;4995055;28;20046;-90
2023/08/12 12:43:55;;;;;;;4.10;2.20;;;;;;;;;;4995137;28;20175;-86
2023/08/12 12:46:22;;;;;;;5.93;2.33;;;;;;;;;;4995366;28;20034;-85
2023/08/12 12:48:48;;;;;;;7.82;2.20;;;;;;;;;;4978474;28;20046;-87
2023/08/12 12:51:14;;;;;;;11.30;3.13;;;;;;;;;;4978598;28;20060;-84
2023/08/12 12:53:41;;;;;;;8.00;2.70;;;19.40;16.10;;;;;;5010847;28;20046;-85
2023/08/12 12:56:07;;;;;;;6.30;2.55;;;;;;;;;;4978539;28;20045;-82
2023/08/12 12:58:33;;;;;;;7.38;2.63;;;;;;;;;;4995043;28;20046;-87
2023/08/12 13:01:00;;;;;;;6.40;2.35;;;19.50;17.30;;;;;;5014763;28;20073;-86
2023/08/12 13:03:26;;;;;;;5.82;2.60;;;;;;;;;;5014713;28;20140;-87
2023/08/12 13:05:53;;;;;;;7.43;3.35;;;;;;;;;;5014273;28;20038;-85
2023/08/12 13:08:19;;;;;;;7.75;3.80;;;;;;;;;;5014753;28;20132;-87
2023/08/12 13:10:45;;;;;;;6.32;3.45;;;;;;;;;;5014439;28;20149;-87
2023/08/12 13:13:14;;;;;;;6.18;3.03;;;20.30;12.10;;;;;;5014222;28;20046;-83
2023/08/12 13:15:40;;;;;;;6.85;3.55;;;;;;;;;;4998233;28;20042;-88
2023/08/12 13:18:06;;;;;;;6.18;3.30;;;;;;;;;;4998323;28;20129;-91
2023/08/12 13:20:32;;;;;;;8.25;3.35;;;;;;;;;;4982702;28;20058;-82
2023/08/12 13:22:58;;;;;;;12.55;3.85;;;;;;;;;;5001678;28;20046;-88
2023/08/12 13:25:24;;;;;;;6.35;3.80;;;21.10;10.00;;;;;;5019716;28;20105;-86
2023/08/12 13:27:50;;;;;;;9.38;3.47;;;;;;;;;;5003667;28;20073;-89
2023/08/12 13:30:16;;;;;;;9.05;3.47;;;21.20;6.70;;;;;;5020304;28;20037;-87
2023/08/12 13:32:41;;;;;;;8.00;3.80;;;21.50;1.00;;;;;;4966279;28;20505;-90
2023/08/12 13:35:07;;;;;;;12.27;3.63;;;21.60;1.00;;;;;;5014733;28;20053;-84
2023/08/12 13:37:33;;;;;;;15.23;4.63;;;;;;;;;;4982208;28;20045;-87
2023/08/12 13:39:59;;;;;;;7.60;3.75;;;21.90;1.00;;;;;;4997617;28;20046;-85
2023/08/12 13:42:25;;;;;;;6.72;2.78;;;22.00;1.00;;;;;;4981805;28;20116;-84
2023/08/12 13:44:50;;;;;;;4.05;3.15;;;22.00;1.00;;;;;;4998185;28;20482;-85
2023/08/12 13:47:16;;;;;;;8.00;2.90;;;22.10;1.00;;;;;;4997615;28;20064;-85
2023/08/12 13:49:42;;;;;;;6.57;2.60;;;;;;;;;;4997342;28;20049;-85